Alder, Washington
Current Conditions -  °F | °C
As of 8:58 AM on Sunday 21 Dec 2014 (Local Time) from KGRF Reporting Station
Broken Clouds Broken Clouds  
Wind Chill: 51°   Ceiling: 14000
Heat Index: 51°   Visibility: 10mi
Dew Point: 50°   Wind: 2mph
Humidity: 97%   Direction: 160°SSE
Pressure: 29.93"   Gusts: NA
Location:  46.8687°N, 122.208°W
Report Text: KGRF 211658Z 16002KT 10SM SCT024 SCT041 BKN140 11/10 A2993 RMK AO2A SLP139 T01050100 $
Loading
Personal Weather Stations






























Interactive Weather Map New forecast layout! Learn more

10-Day Weather Forecast

Advertisements
Track Severe Weather on mobile